Time;durP1;ratioP1;P1;durP2;ratioP2;P2;SDS_P1;SDS_P2;PMS_P1;PMS_P2;Temp;Humidity;BMP_temperature;BMP_pressure;BME280_temperature;BME280_humidity;BME280_pressure;Samples;Min_cycle;Max_cycle;Signal;HPM_P1;HPM_P2
2023/01/09 00:00:14;;;;;;;;;1.00;1.00;;;;;10.28;70.99;-19487.03;5036062;28;45457;-81
2023/01/09 00:02:40;;;;;;;;;1.67;1.00;;;;;10.35;70.53;-19488.94;5035065;28;45363;-81
2023/01/09 00:05:10;;;;;;;;;1.00;1.00;;;;;10.19;70.75;-19484.63;5036425;28;45302;-81
2023/01/09 00:07:35;;;;;;;;;2.33;2.33;;;;;10.56;70.66;-19494.47;5037903;28;46424;-81
2023/01/09 00:10:01;;;;;;;;;0.33;0.33;;;;;10.02;70.43;-19480.16;5037872;28;45488;-81
2023/01/09 00:12:26;;;;;;;;;1.00;1.00;;;;;10.04;70.46;-19480.84;5038094;28;45305;-81
2023/01/09 00:14:51;;;;;;;;;2.33;1.33;;;;;10.51;70.59;-19493.13;5038756;28;45325;-81
2023/01/09 00:17:16;;;;;;;;;3.33;1.00;;;;;10.51;70.59;-19493.25;5035438;28;45966;-81
2023/01/09 00:19:42;;;;;;;;;2.67;2.67;;;;;10.52;70.83;-19493.38;5036599;28;46379;-81
2023/01/09 00:22:08;;;;;;;;;3.00;1.33;;;;;9.68;70.82;-19471.38;5035242;28;45615;-82
2023/01/09 00:24:35;;;;;;;;;1.00;1.00;;;;;10.33;70.63;-19488.41;5034151;28;45852;-81
2023/01/09 00:27:01;;;;;;;;;3.00;1.33;;;;;10.48;70.95;-19492.31;5032782;28;46030;-82
2023/01/09 00:29:26;;;;;;;;;2.33;1.33;;;;;10.48;70.82;-19492.31;5036553;28;45523;-81
2023/01/09 00:31:51;;;;;;;;;1.33;1.33;;;;;10.46;70.90;-19491.91;5030771;28;45591;-82
2023/01/09 00:34:17;;;;;;;;;2.67;2.00;;;;;10.07;70.53;-19481.50;5032683;28;45495;-82
2023/01/09 00:36:42;;;;;;;;;2.00;2.00;;;;;10.46;70.79;-19491.78;5027669;28;46327;-82
2023/01/09 00:39:07;;;;;;;;;5.00;2.00;;;;;10.48;71.06;-19492.31;5037155;28;45352;-82
2023/01/09 00:41:43;;;;;;;;;2.67;1.00;;;;;10.11;71.12;-19482.72;5036015;28;45364;-82
2023/01/09 00:44:14;;;;;;;;;0.33;0.33;;;;;10.50;70.86;-19492.97;5029590;28;45520;-81
2023/01/09 00:46:45;;;;;;;;;1.00;1.00;;;;;10.49;70.97;-19492.59;5022124;28;46293;-81
2023/01/09 00:49:13;;;;;;;;;2.33;1.67;;;;;10.18;70.65;-19484.34;5037726;28;45547;-81
2023/01/09 00:51:40;;;;;;;;;1.33;1.33;;;;;9.89;70.81;-19476.78;5024180;28;46108;-81
2023/01/09 00:54:06;;;;;;;;;1.00;1.00;;;;;10.30;70.93;-19487.72;5032828;28;45611;-81
2023/01/09 00:56:34;;;;;;;;;5.00;1.00;;;;;10.47;70.77;-19492.03;5025712;28;45486;-81
2023/01/09 00:59:01;;;;;;;;;2.33;2.33;;;;;10.39;70.86;-19489.88;5033489;28;45366;-81
2023/01/09 01:01:26;;;;;;;;;4.33;2.00;;;;;10.53;71.09;-19493.66;5027229;28;45669;-82
2023/01/09 01:03:51;;;;;;;;;3.00;1.33;;;;;10.57;70.68;-19494.75;5029774;28;45332;-82
2023/01/09 01:09:01;;;;;;;;;4.33;2.00;;;;;10.56;70.48;-19494.59;5030754;28;45361;-81
2023/01/09 01:11:26;;;;;;;;;3.33;2.00;;;;;10.12;70.50;-19483.00;5032563;28;45429;-81
2023/01/09 01:13:51;;;;;;;;;3.00;1.00;;;;;10.01;70.71;-19480.03;5026161;28;45611;-80
2023/01/09 01:16:17;;;;;;;;;3.67;2.00;;;;;10.06;70.40;-19481.25;5030728;28;45690;-81
2023/01/09 01:18:43;;;;;;;;;3.33;2.33;;;;;10.37;70.76;-19489.34;5027969;28;45565;-81
2023/01/09 01:21:10;;;;;;;;;2.33;2.00;;;;;10.57;70.71;-19494.88;5035857;28;45456;-81
2023/01/09 01:23:36;;;;;;;;;2.33;1.33;;;;;10.56;70.81;-19494.47;5030576;28;45507;-81
2023/01/09 01:26:10;;;;;;;;;3.00;3.00;;;;;10.59;70.86;-19495.16;5027992;28;46171;-81
2023/01/09 01:28:35;;;;;;;;;5.00;2.33;;;;;10.05;70.68;-19480.97;5029799;28;45638;-81
2023/01/09 01:31:01;;;;;;;;;2.33;2.33;;;;;10.56;70.59;-19494.47;5035987;28;45444;-81
2023/01/09 01:33:26;;;;;;;;;3.00;2.00;;;;;10.53;70.99;-19493.66;5034363;28;45314;-82
2023/01/09 01:36:03;;;;;;;;;3.00;1.33;;;;;10.61;70.78;-19495.81;5032726;28;45460;-81
2023/01/09 01:38:29;;;;;;;;;8.00;3.00;;;;;10.60;70.61;-19495.53;5030087;28;45455;-80
2023/01/09 01:40:55;;;;;;;;;1.67;1.00;;;;;10.63;70.61;-19496.34;5049751;28;45526;-80
2023/01/09 01:43:20;;;;;;;;;3.67;3.67;;;;;10.58;70.88;-19495.00;5036991;28;45468;-80
2023/01/09 01:45:46;;;;;;;;;5.00;3.00;;;;;10.07;70.61;-19481.66;5030053;28;46404;-81
2023/01/09 01:48:13;;;;;;;;;2.33;1.00;;;;;10.59;71.00;-19495.28;5026546;28;45614;-80
2023/01/09 01:50:46;;;;;;;;;5.00;2.67;;;;;10.48;70.76;-19492.44;5034995;28;45488;-81
2023/01/09 01:53:17;;;;;;;;;2.67;2.67;;;;;10.63;70.92;-19496.22;5035129;28;45251;-82
2023/01/09 01:55:52;;;;;;;;;1.33;1.33;;;;;10.45;70.87;-19491.50;5021771;28;46271;-81
2023/01/09 01:58:19;;;;;;;;;1.33;1.33;;;;;10.42;70.88;-19490.69;5034797;28;45337;-81
2023/01/09 02:00:46;;;;;;;;;3.00;3.00;;;;;10.08;70.86;-19481.78;5032478;28;45550;-81
2023/01/09 02:03:16;;;;;;;;;2.00;2.00;;;;;10.62;70.93;-19496.09;5033389;28;45263;-81
2023/01/09 02:05:43;;;;;;;;;2.67;1.67;;;;;10.56;70.99;-19494.59;5029703;28;46189;-81
2023/01/09 02:08:09;;;;;;;;;3.67;2.00;;;;;10.66;70.73;-19497.03;5049331;28;45430;-81
2023/01/09 02:10:38;;;;;;;;;2.67;2.67;;;;;10.48;71.14;-19492.31;5032955;28;45380;-81
2023/01/09 02:13:03;;;;;;;;;1.67;1.00;;;;;10.49;71.15;-19492.72;5036503;28;45464;-81
2023/01/09 02:15:41;;;;;;;;;3.67;2.00;;;;;10.30;70.52;-19487.59;5032143;28;47593;-81
2023/01/09 02:18:23;;;;;;;;;2.00;2.00;;;;;10.68;71.00;-19497.72;5026813;28;45602;-81
2023/01/09 02:21:13;;;;;;;;;4.00;1.00;;;;;10.68;70.99;-19497.72;5021373;28;45673;-81
2023/01/09 02:24:00;;;;;;;;;3.00;3.00;;;;;10.66;70.83;-19497.16;5028080;28;45641;-81
2023/01/09 02:26:46;;;;;;;;;2.67;2.00;;;;;10.67;70.76;-19497.31;5024766;28;45420;-81
2023/01/09 02:29:27;;;;;;;;;2.33;2.33;;;;;10.69;71.29;-19497.84;5020516;28;45362;-81
2023/01/09 02:32:03;;;;;;;;;4.67;2.00;;;;;10.73;70.83;-19498.91;5023834;28;45668;-81
2023/01/09 02:34:41;;;;;;;;;4.00;3.00;;;;;10.38;70.81;-19489.75;5021699;28;45517;-81
2023/01/09 02:37:15;;;;;;;;;1.33;1.33;;;;;10.72;70.82;-19498.78;5032787;28;45721;-82
2023/01/09 02:39:55;;;;;;;;;4.67;2.00;;;;;10.71;70.90;-19498.38;5021062;28;45492;-82
2023/01/09 02:42:22;;;;;;;;;3.00;2.00;;;;;10.71;70.82;-19498.38;5025282;28;45422;-82
2023/01/09 02:44:48;;;;;;;;;2.00;2.00;;;;;10.70;70.86;-19498.09;5031476;28;45294;-81
2023/01/09 02:47:16;;;;;;;;;1.00;1.00;;;;;10.68;71.06;-19497.72;5026380;28;45459;-81
2023/01/09 02:49:45;;;;;;;;;3.33;1.67;;;;;10.49;70.85;-19492.59;5035640;28;45385;-81
2023/01/09 02:52:28;;;;;;;;;0.67;0.67;;;;;10.67;70.94;-19497.31;5032463;28;45595;-81
2023/01/09 02:55:03;;;;;;;;;5.00;2.00;;;;;10.66;70.75;-19497.16;5037327;28;45795;-82
2023/01/09 02:57:44;;;;;;;;;4.67;3.00;;;;;10.62;71.08;-19496.09;5031013;28;45758;-82
2023/01/09 03:00:18;;;;;;;;;5.67;3.00;;;;;10.30;71.12;-19487.72;5032706;28;45655;-81
2023/01/09 03:02:52;;;;;;;;;2.67;2.67;;;;;10.69;70.98;-19497.84;5032183;28;45352;-81
2023/01/09 03:05:25;;;;;;;;;3.67;2.67;;;;;10.35;70.85;-19488.94;5037117;28;45460;-81
2023/01/09 03:08:13;;;;;;;;;3.67;3.00;;;;;10.48;70.93;-19492.31;5029681;28;46070;-81
2023/01/09 03:10:57;;;;;;;;;2.00;1.00;;;;;10.50;71.00;-19492.84;5022307;28;45467;-81
2023/01/09 03:13:26;;;;;;;;;3.00;1.00;;;;;10.73;71.03;-19499.06;5035410;28;45413;-81
2023/01/09 03:15:54;;;;;;;;;3.00;1.00;;;;;10.74;71.00;-19499.19;5029817;28;45356;-81
2023/01/09 03:18:24;;;;;;;;;1.33;1.33;;;;;10.31;70.88;-19487.84;5026941;28;47425;-81
2023/01/09 03:20:50;;;;;;;;;0.00;0.00;;;;;10.67;70.88;-19497.44;5046870;28;45303;-81
2023/01/09 03:23:16;;;;;;;;;1.00;1.00;;;;;10.74;70.79;-19499.31;5037921;28;45409;-81
2023/01/09 03:25:41;;;;;;;;;3.67;2.33;;;;;10.76;70.83;-19499.72;5035644;28;45333;-82
2023/01/09 03:28:19;;;;;;;;;2.00;1.00;;;;;10.77;71.03;-19500.13;5024365;28;46283;-81
2023/01/09 03:30:44;;;;;;;;;3.00;3.00;;;;;10.77;70.70;-19500.00;5033766;28;45564;-81
2023/01/09 03:33:10;;;;;;;;;5.00;3.67;;;;;10.79;70.71;-19500.53;5035347;28;45543;-81
2023/01/09 03:35:35;;;;;;;;;2.00;1.67;;;;;9.92;70.56;-19477.59;5025250;28;45559;-82
2023/01/09 03:38:00;;;;;;;;;0.00;0.00;;;;;10.69;70.37;-19497.84;5030552;28;45582;-82
2023/01/09 03:40:26;;;;;;;;;1.67;1.67;;;;;10.61;70.32;-19495.69;5036213;28;45677;-81
2023/01/09 03:42:51;;;;;;;;;5.00;3.00;;;;;10.78;70.29;-19500.41;5036890;28;45684;-81
2023/01/09 03:45:16;;;;;;;;;3.00;1.33;;;;;10.77;70.18;-19500.00;5038401;28;45432;-81
2023/01/09 03:47:42;;;;;;;;;3.33;2.33;;;;;10.72;70.02;-19498.66;5035330;28;46431;-81
2023/01/09 03:50:08;;;;;;;;;2.00;2.00;;;;;10.72;70.39;-19498.66;5025492;28;45521;-81
2023/01/09 03:52:34;;;;;;;;;3.00;1.67;;;;;10.45;70.29;-19491.50;5035576;28;45382;-81
2023/01/09 03:55:00;;;;;;;;;4.33;3.00;;;;;10.46;70.21;-19491.78;5035160;28;45508;-81
2023/01/09 03:57:25;;;;;;;;;2.00;2.00;;;;;10.57;70.18;-19494.75;5032311;28;46152;-81
2023/01/09 03:59:50;;;;;;;;;3.00;1.67;;;;;10.72;69.87;-19498.78;5028020;28;45741;-81
2023/01/09 04:02:16;;;;;;;;;1.00;1.00;;;;;10.70;70.11;-19498.09;5033977;28;45359;-81
2023/01/09 04:04:41;;;;;;;;;5.00;2.00;;;;;10.67;70.14;-19497.44;5022961;28;45615;-81
2023/01/09 04:07:07;;;;;;;;;2.00;2.00;;;;;10.51;70.08;-19493.25;5034188;28;45475;-81
2023/01/09 04:09:32;;;;;;;;;3.00;2.00;;;;;10.23;70.16;-19485.84;5025075;28;45550;-81
2023/01/09 04:11:58;;;;;;;;;2.67;1.67;;;;;10.42;70.36;-19490.81;5030156;28;45448;-81
2023/01/09 04:14:23;;;;;;;;;2.33;2.00;;;;;10.73;70.20;-19498.91;5036244;28;45455;-81
2023/01/09 04:16:49;;;;;;;;;2.00;0.33;;;;;10.75;70.24;-19499.47;5028447;28;45538;-81
2023/01/09 04:19:14;;;;;;;;;3.00;1.00;;;;;10.81;70.11;-19500.94;5020244;28;45485;-81
2023/01/09 04:21:40;;;;;;;;;6.00;3.00;;;;;10.86;69.96;-19502.44;5028912;28;46875;-82
2023/01/09 04:24:05;;;;;;;;;2.00;2.00;;;;;10.89;69.53;-19503.25;5021042;28;45707;-80
2023/01/09 04:26:31;;;;;;;;;4.00;1.00;;;;;10.90;69.48;-19503.38;5024264;28;45694;-81
2023/01/09 04:28:56;;;;;;;;;1.00;1.00;;;;;10.88;69.18;-19502.97;5022982;28;45515;-82
2023/01/09 04:31:21;;;;;;;;;3.00;2.00;;;;;10.87;69.36;-19502.56;5023875;28;45642;-81
2023/01/09 04:33:47;;;;;;;;;2.00;2.00;;;;;10.49;69.38;-19492.59;5036169;28;45310;-81
2023/01/09 04:36:12;;;;;;;;;3.67;3.00;;;;;10.86;68.77;-19502.44;5035419;28;45391;-81
2023/01/09 04:38:38;;;;;;;;;4.00;1.00;;;;;10.87;69.20;-19502.56;5029595;28;45488;-81
2023/01/09 04:41:03;;;;;;;;;2.33;1.00;;;;;10.46;69.15;-19491.91;5028155;28;45498;-82
2023/01/09 04:43:28;;;;;;;;;1.33;0.33;;;;;10.93;69.19;-19504.19;5033546;28;45548;-82
2023/01/09 04:45:54;;;;;;;;;1.33;1.33;;;;;10.95;69.21;-19504.72;5030152;28;46556;-82
2023/01/09 04:48:19;;;;;;;;;4.33;2.67;;;;;10.45;68.96;-19491.63;5036927;28;46018;-82
2023/01/09 04:50:44;;;;;;;;;2.00;2.00;;;;;10.55;68.95;-19494.19;5030305;28;45466;-82
2023/01/09 04:53:10;;;;;;;;;5.00;4.00;;;;;10.95;68.75;-19504.84;5036034;28;45549;-82
2023/01/09 04:55:35;;;;;;;;;2.33;2.33;;;;;10.97;69.04;-19505.41;5029657;28;45500;-82
2023/01/09 04:58:00;;;;;;;;;4.00;4.00;;;;;10.98;68.75;-19505.53;5032419;28;45461;-82
2023/01/09 05:00:26;;;;;;;;;3.00;3.00;;;;;11.02;68.91;-19506.47;5025342;28;45478;-82
2023/01/09 05:02:51;;;;;;;;;7.33;5.67;;;;;11.03;68.87;-19506.88;5024753;28;46257;-82
2023/01/09 05:05:17;;;;;;;;;2.67;2.67;;;;;10.88;68.80;-19502.97;5030325;28;47273;-81
2023/01/09 05:07:42;;;;;;;;;7.33;7.33;;;;;10.69;68.77;-19497.97;5026639;28;45493;-82
2023/01/09 05:10:09;;;;;;;;;5.00;5.00;;;;;10.88;68.70;-19502.84;5030721;28;45522;-82
2023/01/09 05:12:35;;;;;;;;;9.00;8.00;;;;;10.30;68.63;-19487.72;5031947;28;45373;-81
2023/01/09 05:15:02;;;;;;;;;7.33;7.33;;;;;11.04;68.75;-19507.16;5032381;28;46017;-81
2023/01/09 05:17:27;;;;;;;;;10.75;10.75;;;;;11.07;68.73;-19507.81;5027605;28;45593;-81
2023/01/09 05:19:53;;;;;;;;;12.50;12.50;;;;;11.07;68.85;-19507.81;5032044;28;45389;-81
2023/01/09 05:22:18;;;;;;;;;6.00;6.00;;;;;10.94;68.67;-19504.59;5027803;28;45601;-80
2023/01/09 05:24:43;;;;;;;;;9.50;8.50;;;;;11.07;68.80;-19507.94;5022968;28;46228;-81
2023/01/09 05:27:09;;;;;;;;;7.33;6.33;;;;;11.10;68.93;-19508.63;5027333;28;45473;-81
2023/01/09 05:29:34;;;;;;;;;13.00;13.00;;;;;10.95;68.46;-19504.72;5032339;28;45706;-81
2023/01/09 05:31:59;;;;;;;;;14.50;14.50;;;;;11.12;68.42;-19509.31;5035784;28;45833;-81
2023/01/09 05:34:25;;;;;;;;;10.25;10.25;;;;;11.16;68.77;-19510.38;5031899;28;45290;-81
2023/01/09 05:36:50;;;;;;;;;24.25;22.50;;;;;11.18;68.55;-19510.91;5023056;28;45738;-81
2023/01/09 05:39:16;;;;;;;;;28.75;28.50;;;;;11.01;68.52;-19506.19;5032432;28;45391;-80
2023/01/09 05:41:41;;;;;;;;;29.00;29.00;;;;;10.87;68.61;-19502.69;5030338;28;45946;-81
2023/01/09 05:44:07;;;;;;;;;55.00;46.67;;;;;10.63;67.83;-19496.22;5028545;28;46285;-82
2023/01/09 05:46:32;;;;;;;;;52.67;45.00;;;;;10.98;68.09;-19505.53;5029244;28;45531;-82
2023/01/09 05:48:57;;;;;;;;;52.00;44.00;;;;;10.72;67.83;-19498.78;5031667;28;45541;-82
2023/01/09 05:51:23;;;;;;;;;55.00;46.67;;;;;10.74;67.97;-19499.19;5020986;28;45533;-82
2023/01/09 05:53:48;;;;;;;;;52.67;44.67;;;;;11.08;67.96;-19508.09;5029737;28;46744;-82
2023/01/09 05:56:14;;;;;;;;;52.33;45.00;;;;;10.88;68.24;-19502.84;5029262;28;45836;-82
2023/01/09 05:58:39;;;;;;;;;51.67;44.33;;;;;11.02;67.97;-19506.59;5030823;28;45449;-82
2023/01/09 06:01:05;;;;;;;;;50.33;43.33;;;;;10.69;68.12;-19497.97;5028697;28;45449;-82
2023/01/09 06:03:31;;;;;;;;;52.67;45.00;;;;;10.93;68.04;-19504.31;5025816;28;46175;-83
2023/01/09 06:05:56;;;;;;;;;54.33;46.33;;;;;11.04;68.01;-19507.16;5030384;28;45564;-82
2023/01/09 06:08:21;;;;;;;;;51.67;44.33;;;;;11.04;68.02;-19507.16;5030778;28;45477;-82
2023/01/09 06:10:47;;;;;;;;;47.33;41.00;;;;;10.56;68.05;-19494.59;5031984;28;45741;-82
2023/01/09 06:13:13;;;;;;;;;51.00;43.67;;;;;11.03;67.81;-19506.88;5034066;28;45862;-83
2023/01/09 06:15:38;;;;;;;;;49.67;42.67;;;;;10.80;67.76;-19500.69;5028833;28;45978;-84
2023/01/09 06:18:04;;;;;;;;;45.33;39.00;;;;;10.63;67.69;-19496.22;5031476;28;45376;-82
2023/01/09 06:20:30;;;;;;;;;51.33;44.33;;;;;10.97;67.61;-19505.25;5029482;28;45464;-83
2023/01/09 06:22:55;;;;;;;;;44.67;38.33;;;;;10.95;67.82;-19504.84;5032326;28;45321;-83
2023/01/09 06:25:20;;;;;;;;;48.00;40.33;;;;;10.94;67.68;-19504.44;5035968;28;45475;-82
2023/01/09 06:27:46;;;;;;;;;45.33;39.33;;;;;10.86;67.52;-19502.28;5030004;28;45468;-82
2023/01/09 06:30:11;;;;;;;;;47.33;40.67;;;;;10.92;67.70;-19504.03;5035268;28;45338;-81
2023/01/09 06:32:37;;;;;;;;;42.00;36.00;;;;;10.87;67.77;-19502.69;5034423;28;46387;-81
2023/01/09 06:35:02;;;;;;;;;41.33;37.00;;;;;10.92;67.43;-19504.03;5031992;28;45442;-82
2023/01/09 06:37:27;;;;;;;;;45.00;38.00;;;;;10.92;67.24;-19503.91;5031072;28;45408;-82
2023/01/09 06:39:53;;;;;;;;;42.00;37.00;;;;;10.75;67.47;-19499.59;5032827;28;45532;-81
2023/01/09 06:42:19;;;;;;;;;44.33;37.67;;;;;10.91;67.56;-19503.78;5029900;28;47439;-81
2023/01/09 06:44:44;;;;;;;;;41.00;37.00;;;;;10.95;67.56;-19504.84;5033344;28;45856;-81
2023/01/09 06:47:09;;;;;;;;;46.00;39.67;;;;;10.50;67.62;-19492.97;5026153;28;46017;-81
2023/01/09 06:49:35;;;;;;;;;45.33;39.33;;;;;10.62;67.56;-19495.94;5023121;28;45397;-82
2023/01/09 06:52:04;;;;;;;;;44.00;37.33;;;;;10.95;67.52;-19504.72;5028289;28;45914;-81
2023/01/09 06:54:30;;;;;;;;;37.75;33.75;;;;;10.77;67.16;-19500.00;5021557;28;45393;-81
2023/01/09 06:56:55;;;;;;;;;47.67;40.67;;;;;10.99;67.16;-19505.78;5025254;28;45547;-81
2023/01/09 06:59:21;;;;;;;;;40.67;36.00;;;;;10.98;66.91;-19505.66;5031311;28;45631;-81
2023/01/09 07:01:46;;;;;;;;;41.75;33.50;;;;;10.98;66.81;-19505.53;5023908;28;46106;-81
2023/01/09 07:04:11;;;;;;;;;45.75;34.50;;;;;10.40;66.33;-19490.28;5034165;28;45430;-82
2023/01/09 07:06:37;;;;;;;;;40.50;31.00;;;;;10.98;66.05;-19505.53;5025258;28;45492;-81
2023/01/09 07:09:04;;;;;;;;;39.50;26.50;;;;;10.96;66.33;-19505.00;5028733;28;45264;-81
2023/01/09 07:11:30;;;;;;;;;38.00;26.50;;;;;10.96;66.20;-19505.13;5031948;28;47317;-82
2023/01/09 07:13:56;;;;;;;;;43.50;30.50;;;;;10.81;65.98;-19500.94;5035189;28;45436;-83
2023/01/09 07:16:21;;;;;;;;;40.00;28.50;;;;;10.85;65.95;-19502.03;5027875;28;45328;-83
2023/01/09 07:18:46;;;;;;;;;45.50;33.00;;;;;10.96;65.88;-19505.13;5031351;28;45452;-85
2023/01/09 07:21:12;;;;;;;;;42.00;30.50;;;;;10.69;65.77;-19497.97;5033588;28;45711;-83
2023/01/09 07:23:37;;;;;;;;;43.25;31.00;;;;;10.45;65.90;-19491.63;5027728;28;45468;-86
2023/01/09 07:26:02;;;;;;;;;36.50;23.75;;;;;10.96;65.60;-19505.13;5023013;28;45486;-83
2023/01/09 07:28:28;;;;;;;;;26.25;26.25;;;;;10.77;65.73;-19498.19;5029987;28;45472;-84
2023/01/09 07:30:53;;;;;;;;;20.50;20.50;;;;;10.89;65.63;-19501.28;5026519;28;45492;-83
2023/01/09 07:33:19;;;;;;;;;25.00;25.00;;;;;10.90;65.86;-19501.44;5022284;28;45612;-86
2023/01/09 07:35:44;;;;;;;;;26.50;25.75;;;;;10.73;65.75;-19497.13;5032186;28;45380;-88
2023/01/09 07:38:10;;;;;;;;;26.25;26.25;;;;;10.94;65.68;-19502.50;5021301;28;45374;-87
2023/01/09 07:40:35;;;;;;;;;29.25;29.00;;;;;10.93;65.68;-19502.38;5035058;28;46021;-88
2023/01/09 07:43:00;;;;;;;;;28.50;26.50;;;;;10.85;65.72;-19500.09;5033043;28;46194;-89
2023/01/09 07:45:26;;;;;;;;;26.75;26.75;;;;;10.93;65.57;-19502.25;5030639;28;45535;-86
2023/01/09 07:47:51;;;;;;;;;21.75;19.75;;;;;10.72;65.25;-19496.84;5031381;28;45548;-86
2023/01/09 07:50:17;;;;;;;;;29.75;26.25;;;;;10.95;65.25;-19502.78;5037896;28;46966;-86
2023/01/09 07:52:45;;;;;;;;;21.50;21.50;;;;;10.97;65.27;-19503.44;5025278;28;46028;-86
2023/01/09 07:55:11;;;;;;;;;24.50;24.25;;;;;10.98;65.58;-19503.59;5037239;28;45560;-86
2023/01/09 07:57:36;;;;;;;;;22.75;21.75;;;;;10.98;65.64;-19503.72;5036813;28;45446;-87
2023/01/09 08:00:05;;;;;;;;;22.75;22.75;;;;;11.05;65.60;-19505.34;5026693;28;48310;-87
2023/01/09 08:02:31;;;;;;;;;30.75;30.00;;;;;10.97;65.66;-19503.31;5036861;28;45469;-87
2023/01/09 08:04:56;;;;;;;;;19.50;17.75;;;;;10.99;65.49;-19503.84;5032427;28;45603;-86
2023/01/09 08:07:21;;;;;;;;;14.50;14.50;;;;;11.05;65.46;-19505.47;5035558;28;45397;-86
2023/01/09 08:09:46;;;;;;;;;7.75;7.75;;;;;10.96;65.33;-19503.06;5033610;28;47302;-87
2023/01/09 08:12:12;;;;;;;;;7.25;5.75;;;;;11.02;65.23;-19504.66;5035454;28;45583;-86
2023/01/09 08:14:37;;;;;;;;;7.75;6.00;;;;;11.04;65.09;-19505.06;5030412;28;45362;-86
2023/01/09 08:17:02;;;;;;;;;8.00;8.00;;;;;10.92;65.12;-19501.97;5036621;28;45590;-86
2023/01/09 08:19:28;;;;;;;;;6.00;6.00;;;;;11.09;64.99;-19506.41;5036610;28;47468;-86
2023/01/09 08:21:53;;;;;;;;;7.25;7.25;;;;;11.07;64.96;-19505.88;5025324;28;45460;-86
2023/01/09 08:24:18;;;;;;;;;4.00;4.00;;;;;10.79;64.77;-19498.59;5025932;28;45487;-86
2023/01/09 08:26:44;;;;;;;;;5.33;4.00;;;;;11.01;64.82;-19173.28;5032703;28;45528;-86
2023/01/09 08:29:09;;;;;;;;;2.00;2.00;;;;;10.99;64.68;-19172.88;5030200;28;46184;-87
2023/01/09 08:31:35;;;;;;;;;4.33;4.33;;;;;10.99;64.85;-19172.75;5025668;28;45430;-86
2023/01/09 08:34:01;;;;;;;;;6.25;6.25;;;;;10.99;65.07;-19172.88;5034149;28;45437;-87
2023/01/09 08:36:26;;;;;;;;;1.67;1.67;;;;;10.76;64.79;-19166.81;5037338;28;45497;-87
2023/01/09 08:38:51;;;;;;;;;3.00;3.00;;;;;11.00;64.91;-19173.03;5036327;28;46108;-87
2023/01/09 08:47:06;;;;;;;;;4.33;4.00;;;;;10.97;64.60;-19172.22;5023870;28;45506;-85
2023/01/09 08:49:32;;;;;;;;;4.67;3.00;;;;;11.00;64.82;-19173.03;5031334;28;47145;-85
2023/01/09 08:51:57;;;;;;;;;5.33;4.00;;;;;10.63;64.42;-19163.38;5029080;28;46839;-85
2023/01/09 08:54:22;;;;;;;;;3.00;1.00;;;;;10.97;64.65;-19172.38;5027613;28;45876;-85
2023/01/09 08:56:48;;;;;;;;;1.00;1.00;;;;;10.97;64.65;-19172.38;5034866;28;45490;-85
2023/01/09 08:59:14;;;;;;;;;1.67;1.33;;;;;10.89;64.68;-19170.25;5036056;28;45651;-85
2023/01/09 09:01:40;;;;;;;;;1.00;0.00;;;;;10.62;64.48;-19163.13;5034579;28;45452;-86
2023/01/09 09:04:05;;;;;;;;;1.00;1.00;;;;;10.99;64.43;-19172.75;5037679;28;45368;-85
2023/01/09 09:06:32;;;;;;;;;1.67;0.00;;;;;10.63;64.55;-19163.38;5037640;28;45342;-86
2023/01/09 09:09:01;;;;;;;;;1.00;1.00;;;;;10.72;64.36;-18834.78;5037513;28;47114;-85
2023/01/09 09:11:28;;;;;;;;;1.00;1.00;;;;;10.54;64.34;-19161.25;5036973;28;45482;-85
2023/01/09 09:13:53;;;;;;;;;0.33;0.33;;;;;11.12;64.73;-19176.19;5025540;28;45507;-86
2023/01/09 09:16:19;;;;;;;;;0.00;0.00;;;;;11.22;64.59;-19178.56;5032539;28;45263;-85
2023/01/09 09:18:44;;;;;;;;;0.33;0.00;;;;;10.79;64.29;-19167.59;5037334;28;45366;-85
2023/01/09 09:21:10;;;;;;;;;2.00;1.00;;;;;11.26;64.26;-19179.63;5035761;28;45496;-85
2023/01/09 09:23:35;;;;;;;;;1.00;1.00;;;;;10.61;64.20;-19162.97;5037669;28;45472;-85
2023/01/09 09:26:00;;;;;;;;;1.00;1.00;;;;;11.10;63.90;-19175.53;5035096;28;45413;-86
2023/01/09 09:28:26;;;;;;;;;2.67;1.00;;;;;11.23;63.85;-19178.97;5024020;28;47657;-85
2023/01/09 09:30:51;;;;;;;;;2.00;0.00;;;;;11.26;64.12;-19179.63;5037385;28;45467;-85
2023/01/09 09:33:16;;;;;;;;;3.00;3.00;;;;;11.04;63.97;-18842.78;5037405;28;45335;-86
2023/01/09 09:35:42;;;;;;;;;1.00;1.00;;;;;11.20;64.06;-18847.06;5035557;28;45407;-86
2023/01/09 09:38:07;;;;;;;;;1.33;1.33;;;;;11.20;63.99;-18846.94;5036674;28;45872;-86
2023/01/09 09:41:00;;;;;;;;;1.33;1.33;;;;;11.16;64.20;-18845.91;5035766;28;45302;-85
2023/01/09 09:47:01;;;;;;;;;2.67;1.67;;;;;10.90;64.46;-19170.38;5024546;28;45463;-86
2023/01/09 09:49:49;;;;;;;;;0.33;0.33;;;;;11.31;64.11;-19180.94;4975054;28;46580;-85
2023/01/09 09:52:27;;;;;;;;;1.00;1.00;;;;;11.43;64.24;-19184.13;4961877;28;45540;-85
2023/01/09 09:54:53;;;;;;;;;1.00;1.00;;;;;11.46;64.08;-19184.78;4967508;28;45530;-85
2023/01/09 09:57:24;;;;;;;;;3.33;3.33;;;;;11.45;63.92;-19184.50;4972427;28;45415;-85
2023/01/09 09:59:50;;;;;;;;;2.00;2.00;;;;;11.58;63.80;-19187.94;4958951;28;46296;-85
2023/01/09 10:02:29;;;;;;;;;3.00;1.33;;;;;11.65;63.48;-19189.78;4973767;28;45515;-85
2023/01/09 10:05:04;;;;;;;;;2.67;1.33;;;;;11.74;63.58;-19192.16;4974952;28;45370;-86
2023/01/09 10:07:43;;;;;;;;;1.00;1.00;;;;;11.82;63.50;-19194.16;4975676;28;45475;-85
2023/01/09 10:10:17;;;;;;;;;4.00;3.00;;;;;11.81;63.53;-19194.00;4974503;28;45404;-85
2023/01/09 10:12:55;;;;;;;;;2.00;2.00;;;;;11.80;63.59;-19193.63;4964820;28;45837;-85
2023/01/09 10:15:37;;;;;;;;;0.00;0.00;;;;;11.83;63.86;-19194.41;4966028;28;45895;-85
2023/01/09 10:18:21;;;;;;;;;4.00;4.00;;;;;11.89;64.15;-19527.56;4958788;28;45289;-85
2023/01/09 10:21:23;;;;;;;;;3.00;3.00;;;;;11.95;63.85;-19529.06;5018290;28;45473;-85
2023/01/09 10:24:10;;;;;;;;;5.33;5.33;;;;;11.98;64.22;-19530.00;5014833;28;45537;-85
2023/01/09 10:26:47;;;;;;;;;1.00;1.00;;;;;11.64;64.84;-19520.97;5035520;28;45725;-85
2023/01/09 10:29:39;;;;;;;;;22.75;22.50;;;;;12.02;65.51;-19532.88;5037003;28;45735;-85
2023/01/09 10:32:21;;;;;;;;;14.75;13.75;;;;;12.02;65.58;-19533.03;5034562;28;46438;-85
2023/01/09 10:35:14;;;;;;;;;2.00;2.00;;;;;11.99;65.15;-19530.13;5036326;28;45475;-85
2023/01/09 10:37:43;;;;;;;;;12.75;11.75;;;;;11.98;65.20;-19529.88;5035958;28;45572;-85
2023/01/09 10:40:20;;;;;;;;;3.00;3.00;;;;;11.96;64.76;-19529.31;5036770;28;45480;-85
2023/01/09 10:42:50;;;;;;;;;3.33;3.33;;;;;11.94;64.30;-19528.78;5033129;28;45735;-85
2023/01/09 10:45:24;;;;;;;;;4.33;3.67;;;;;11.94;64.26;-19528.94;5035774;28;45395;-86
2023/01/09 10:47:56;;;;;;;;;3.67;3.67;;;;;11.65;63.67;-19189.78;5035985;28;45481;-85
2023/01/09 10:50:27;;;;;;;;;8.33;8.00;;;;;11.86;63.83;-19195.22;5036520;28;45453;-85
2023/01/09 10:52:55;;;;;;;;;7.00;7.00;;;;;11.88;63.87;-19195.59;5032175;28;47586;-86
2023/01/09 10:55:43;;;;;;;;;6.33;6.33;;;;;11.89;63.66;-19196.00;5035749;28;45376;-85
2023/01/09 10:58:15;;;;;;;;;4.67;4.67;;;;;11.84;63.55;-19194.81;5034839;28;45476;-86
2023/01/09 11:00:41;;;;;;;;;12.25;10.75;;;;;11.91;63.11;-19196.41;5035991;28;45589;-85
2023/01/09 11:03:21;;;;;;;;;14.00;14.00;;;;;11.73;63.06;-19191.91;5034108;28;47421;-85
2023/01/09 11:05:56;;;;;;;;;8.33;7.33;;;;;11.90;63.97;-19196.25;5035764;28;45352;-85
2023/01/09 11:08:28;;;;;;;;;2.33;2.33;;;;;11.92;65.20;-19528.38;5036475;28;45536;-85
2023/01/09 11:10:58;;;;;;;;;9.75;9.25;;;;;11.83;65.91;-19525.97;5039519;28;45492;-86
2023/01/09 11:13:32;;;;;;;;;3.67;3.67;;;;;11.64;65.93;-19520.84;5037595;28;48230;-85
2023/01/09 11:16:06;;;;;;;;;31.25;30.25;;;;;11.88;66.50;-19529.25;5039329;28;45523;-85
2023/01/09 11:18:57;;;;;;;;;34.25;32.50;;;;;11.91;66.54;-19530.06;5039371;28;45410;-85
2023/01/09 11:21:38;;;;;;;;;13.25;12.00;;;;;11.97;65.83;-19529.59;5029038;28;45464;-85
2023/01/09 11:24:26;;;;;;;;;0.00;0.00;;;;;11.98;65.17;-19530.00;5031199;28;47295;-86
2023/01/09 11:27:13;;;;;;;;;3.00;2.67;;;;;11.53;65.22;-19518.16;5022671;28;45421;-85
2023/01/09 11:29:42;;;;;;;;;8.33;8.33;;;;;12.06;65.39;-19532.03;5035267;28;45386;-85
2023/01/09 11:32:22;;;;;;;;;3.33;3.00;;;;;12.09;64.64;-19532.84;5029192;28;45578;-85
2023/01/09 11:34:47;;;;;;;;;5.33;4.00;;;;;12.21;65.04;-19537.88;5041707;28;46395;-85
2023/01/09 11:37:26;;;;;;;;;5.00;2.33;;;;;12.27;64.16;-19537.53;5037471;28;45283;-85
2023/01/09 11:39:52;;;;;;;;;4.00;4.00;;;;;12.34;63.87;-19539.44;5026042;28;45525;-85